createdAt,value
2018-01-05T00:00:23.342Z,3.60
2018-01-05T00:02:50.349Z,5.07
2018-01-05T00:05:17.325Z,3.03
2018-01-05T00:07:43.574Z,3.00
2018-01-05T00:10:09.759Z,3.27
2018-01-05T00:12:36.009Z,2.73
2018-01-05T00:15:02.188Z,4.00
2018-01-05T00:17:28.458Z,2.30
2018-01-05T00:19:54.644Z,3.23
2018-01-05T00:22:21.085Z,2.43
2018-01-05T00:24:47.263Z,2.70
2018-01-05T00:27:13.443Z,2.70
2018-01-05T00:29:40.441Z,1.93
2018-01-05T00:32:06.624Z,2.00
2018-01-05T00:34:33.695Z,2.47
2018-01-05T00:36:59.879Z,2.03
2018-01-05T00:39:26.064Z,3.50
2018-01-05T00:41:52.331Z,2.40
2018-01-05T00:44:18.519Z,2.40
2018-01-05T00:46:44.723Z,2.40
2018-01-05T00:49:11.643Z,1.80
2018-01-05T00:51:37.879Z,3.30
2018-01-05T00:54:04.060Z,2.50
2018-01-05T00:56:30.244Z,2.77
2018-01-05T00:58:57.203Z,2.93
2018-01-05T01:01:24.124Z,2.57
2018-01-05T01:03:50.332Z,3.20
2018-01-05T01:06:16.516Z,3.73
2018-01-05T01:08:42.783Z,2.67
2018-01-05T01:11:10.063Z,3.83
2018-01-05T01:13:36.271Z,3.70
2018-01-05T01:16:02.535Z,3.70
2018-01-05T01:18:29.519Z,2.90
2018-01-05T01:20:55.702Z,2.40
2018-01-05T01:23:21.883Z,3.37
2018-01-05T01:25:48.083Z,2.43
2018-01-05T01:28:14.748Z,2.03
2018-01-05T01:30:40.980Z,2.93
2018-01-05T01:33:07.164Z,3.57
2018-01-05T01:35:34.575Z,2.33
2018-01-05T01:38:00.763Z,2.90
2018-01-05T01:40:27.690Z,2.23
2018-01-05T01:42:54.635Z,3.07
2018-01-05T01:45:20.847Z,2.73
2018-01-05T01:47:47.064Z,2.83
2018-01-05T01:50:13.251Z,3.40
2018-01-05T01:52:39.454Z,2.87
2018-01-05T01:55:06.375Z,2.07
2018-01-05T01:57:32.676Z,3.27
2018-01-05T01:59:58.883Z,2.47
2018-01-05T02:02:25.095Z,3.17
2018-01-05T02:04:51.344Z,2.37
2018-01-05T02:07:17.611Z,2.50
2018-01-05T02:09:43.787Z,1.90
2018-01-05T02:12:10.019Z,2.37
2018-01-05T02:14:36.707Z,3.50
2018-01-05T02:17:03.449Z,2.60
2018-01-05T02:19:30.696Z,2.30
2018-01-05T02:21:57.482Z,2.57
2018-01-05T02:24:23.980Z,2.83
2018-01-05T02:26:50.972Z,1.77
2018-01-05T02:29:17.183Z,2.83
2018-01-05T02:31:44.117Z,3.03
2018-01-05T02:34:11.064Z,2.93
2018-01-05T02:36:37.255Z,3.13
2018-01-05T02:39:03.516Z,3.67
2018-01-05T02:41:29.703Z,2.60
2018-01-05T02:43:55.917Z,1.97
2018-01-05T02:46:22.160Z,2.20
2018-01-05T02:48:48.396Z,2.70
2018-01-05T02:51:14.575Z,2.83
2018-01-05T02:53:41.510Z,2.77
2018-01-05T02:56:07.771Z,2.60
2018-01-05T02:58:34.740Z,1.90
2018-01-05T03:01:00.950Z,2.23
2018-01-05T03:03:27.876Z,2.30
2018-01-05T03:05:55.070Z,2.10
2018-01-05T03:08:21.251Z,2.07
2018-01-05T03:10:48.203Z,1.33
2018-01-05T03:13:15.205Z,2.20
2018-01-05T03:15:41.603Z,2.93
2018-01-05T03:18:07.784Z,1.70
2018-01-05T03:20:33.972Z,2.20
2018-01-05T03:23:00.184Z,2.30
2018-01-05T03:25:27.107Z,3.00
2018-01-05T03:27:53.311Z,2.53
2018-01-05T03:30:19.501Z,2.53
2018-01-05T03:32:45.680Z,2.23
2018-01-05T03:35:11.887Z,1.97
2018-01-05T03:37:38.101Z,2.00
2018-01-05T03:40:04.343Z,2.23
2018-01-05T03:42:30.527Z,2.73
2018-01-05T03:44:57.811Z,2.17
2018-01-05T03:47:23.992Z,2.47
2018-01-05T03:49:50.947Z,2.70
2018-01-05T03:52:17.875Z,2.40
2018-01-05T03:54:44.080Z,1.83
2018-01-05T03:57:10.263Z,2.20
2018-01-05T03:59:36.467Z,3.57
2018-01-05T04:02:02.675Z,2.13
2018-01-05T04:04:29.735Z,2.30
2018-01-05T04:06:55.920Z,1.97
2018-01-05T04:09:22.104Z,2.83
2018-01-05T04:11:49.060Z,2.37
2018-01-05T04:14:15.987Z,1.37
2018-01-05T04:16:42.215Z,1.30
2018-01-05T04:19:08.703Z,1.70
2018-01-05T04:21:34.907Z,2.23
2018-01-05T04:24:01.160Z,2.07
2018-01-05T04:26:27.371Z,1.77
2018-01-05T04:28:53.564Z,2.37
2018-01-05T04:31:19.775Z,1.10
2018-01-05T04:33:45.959Z,1.80
2018-01-05T04:36:12.231Z,1.80
2018-01-05T04:38:38.411Z,1.80
2018-01-05T04:41:05.360Z,2.20
2018-01-05T04:43:32.278Z,1.20
2018-01-05T04:45:58.512Z,1.50
2018-01-05T04:48:25.437Z,1.50
2018-01-05T04:50:51.646Z,1.70
2018-01-05T04:53:17.833Z,1.70
2018-01-05T04:55:44.059Z,2.47
2018-01-05T04:58:10.979Z,2.53
2018-01-05T05:00:37.291Z,1.83
2018-01-05T05:03:03.502Z,1.67
2018-01-05T05:05:29.683Z,2.03
2018-01-05T05:07:56.643Z,1.77
2018-01-05T05:10:22.885Z,1.03
2018-01-05T05:12:49.083Z,1.60
2018-01-05T05:15:15.345Z,1.43
2018-01-05T05:17:41.523Z,1.70
2018-01-05T05:20:07.734Z,1.20
2018-01-05T05:22:33.919Z,1.60
2018-01-05T05:25:00.131Z,1.83
2018-01-05T05:27:27.319Z,1.77
2018-01-05T05:29:53.975Z,1.10
2018-01-05T05:32:20.161Z,1.30
2018-01-05T05:34:46.395Z,1.43
2018-01-05T05:37:12.603Z,1.00
2018-01-05T05:39:39.528Z,1.40
2018-01-05T05:42:06.484Z,2.20
2018-01-05T05:44:32.662Z,2.60
2018-01-05T05:46:58.867Z,1.43
2018-01-05T05:49:25.792Z,1.13
2018-01-05T05:51:52.002Z,1.73
2018-01-05T05:54:18.192Z,1.40
2018-01-05T05:56:44.398Z,1.50
2018-01-05T05:59:11.323Z,1.10
2018-01-05T06:01:38.280Z,0.73
2018-01-05T06:04:05.203Z,2.23
2018-01-05T06:06:31.424Z,1.97
2018-01-05T06:08:58.388Z,1.33
2018-01-05T06:11:25.588Z,1.70
2018-01-05T06:13:51.795Z,1.63
2018-01-05T06:16:18.023Z,2.00
2018-01-05T06:18:44.252Z,1.43
2018-01-05T06:21:10.459Z,1.13
2018-01-05T06:23:37.383Z,1.10
2018-01-05T06:26:03.600Z,2.23
2018-01-05T06:28:29.783Z,1.50
2018-01-05T06:30:56.012Z,1.70
2018-01-05T06:33:22.195Z,2.03
2018-01-05T06:35:48.383Z,1.50
2018-01-05T06:38:14.587Z,1.53
2018-01-05T06:40:41.507Z,1.33
2018-01-05T06:43:07.771Z,1.73
2018-01-05T06:45:33.955Z,1.23
2018-01-05T06:48:00.159Z,1.20
2018-01-05T06:50:26.644Z,1.30
2018-01-05T06:52:53.593Z,1.27
2018-01-05T06:55:20.522Z,2.13
2018-01-05T06:57:46.731Z,1.80
2018-01-05T07:00:12.915Z,1.10
2018-01-05T07:02:39.095Z,1.83
2018-01-05T07:05:05.302Z,2.20
2018-01-05T07:07:31.492Z,1.50
2018-01-05T07:09:58.436Z,2.73
2018-01-05T07:12:25.367Z,2.00
2018-01-05T07:14:52.315Z,1.53
2018-01-05T07:17:18.550Z,1.90
2018-01-05T07:19:45.515Z,2.57
2018-01-05T07:22:11.695Z,1.60
2018-01-05T07:24:37.903Z,1.53
2018-01-05T07:27:04.087Z,2.83
2018-01-05T07:29:31.036Z,2.37
2018-01-05T07:31:57.960Z,1.60
2018-01-05T07:34:24.172Z,2.40
2018-01-05T07:36:50.355Z,2.13
2018-01-05T07:39:16.591Z,2.30
2018-01-05T07:41:42.771Z,1.20
2018-01-05T07:44:08.999Z,3.57
2018-01-05T07:46:35.180Z,1.10
2018-01-05T07:49:01.372Z,2.00
2018-01-05T07:51:28.323Z,1.77
2018-01-05T07:53:55.251Z,1.70
2018-01-05T07:56:21.460Z,3.13
2018-01-05T07:58:47.639Z,1.87
2018-01-05T08:01:13.845Z,2.07
2018-01-05T08:03:40.767Z,1.77
2018-01-05T08:06:07.000Z,2.80
2018-01-05T08:08:33.220Z,1.63
2018-01-05T08:10:59.404Z,2.43
2018-01-05T08:13:25.611Z,2.90
2018-01-05T08:15:52.555Z,1.57
2018-01-05T08:18:19.503Z,1.73
2018-01-05T08:20:46.428Z,2.13
2018-01-05T08:23:12.632Z,3.37
2018-01-05T08:25:38.824Z,3.27
2018-01-05T08:28:05.027Z,2.10
2018-01-05T08:30:31.955Z,1.80
2018-01-05T08:32:58.165Z,2.33
2018-01-05T08:35:24.343Z,2.23
2018-01-05T08:37:50.551Z,2.23
2018-01-05T08:40:16.732Z,1.60
2018-01-05T08:42:42.942Z,1.60
2018-01-05T08:45:09.136Z,2.67
2018-01-05T08:47:35.439Z,1.90
2018-01-05T08:50:01.633Z,2.30
2018-01-05T08:52:27.997Z,2.00
2018-01-05T08:54:54.180Z,1.97
2018-01-05T08:57:20.372Z,1.77
2018-01-05T08:59:46.628Z,2.37
2018-01-05T09:02:13.555Z,2.10
2018-01-05T09:04:39.848Z,2.80
2018-01-05T09:07:06.032Z,2.27
2018-01-05T09:09:32.959Z,2.30
2018-01-05T09:11:59.160Z,1.70
2018-01-05T09:14:25.348Z,1.93
2018-01-05T09:16:51.607Z,3.43
2018-01-05T09:19:17.783Z,2.40
2018-01-05T09:21:44.731Z,2.20
2018-01-05T09:24:11.679Z,2.20
2018-01-05T09:26:38.628Z,2.17
2018-01-05T09:29:05.553Z,1.17
2018-01-05T09:31:32.482Z,1.47
2018-01-05T09:33:58.691Z,1.90
2018-01-05T09:36:24.871Z,1.30
2018-01-05T09:38:51.815Z,1.80
2018-01-05T09:41:18.739Z,2.50
2018-01-05T09:43:44.940Z,1.60
2018-01-05T09:46:11.152Z,1.60
2018-01-05T09:48:37.367Z,1.93
2018-01-05T09:51:03.582Z,1.03
2018-01-05T09:53:30.531Z,1.97
2018-01-05T09:55:57.457Z,1.60
2018-01-05T09:58:24.411Z,1.43
2018-01-05T10:00:51.447Z,1.30
2018-01-05T10:03:17.659Z,1.37
2018-01-05T10:05:43.846Z,1.30
2018-01-05T10:08:10.023Z,1.87
2018-01-05T10:10:36.240Z,1.53
2018-01-05T10:13:02.424Z,1.40
2018-01-05T10:15:28.636Z,1.20
2018-01-05T10:17:55.593Z,1.20
2018-01-05T10:20:21.860Z,0.87
2018-01-05T10:22:48.035Z,1.50
2018-01-05T10:25:15.051Z,1.17
2018-01-05T10:27:41.277Z,1.20
2018-01-05T10:30:07.456Z,1.07
2018-01-05T10:32:34.560Z,1.30
2018-01-05T10:35:00.748Z,1.50
2018-01-05T10:37:26.923Z,1.30
2018-01-05T10:39:53.128Z,1.17
2018-01-05T10:42:19.331Z,0.80
2018-01-05T10:44:45.536Z,1.20
2018-01-05T10:47:12.472Z,1.10
2018-01-05T10:49:38.719Z,1.40
2018-01-05T10:52:05.640Z,0.90
2018-01-05T10:54:31.839Z,1.80
2018-01-05T10:56:58.044Z,1.43
2018-01-05T10:59:24.233Z,1.20
2018-01-05T11:01:50.444Z,1.17
2018-01-05T11:04:16.627Z,1.00
2018-01-05T11:06:42.824Z,1.20
2018-01-05T11:09:09.760Z,1.07
2018-01-05T11:11:35.970Z,1.20
2018-01-05T11:14:02.156Z,1.00
2018-01-05T11:16:28.383Z,1.07
2018-01-05T11:18:54.564Z,0.93
2018-01-05T11:21:22.512Z,1.40
2018-01-05T11:23:48.695Z,1.00
2018-01-05T11:26:15.616Z,1.30
2018-01-05T11:28:42.559Z,1.00
2018-01-05T11:31:08.753Z,1.80
2018-01-05T11:33:34.996Z,1.43
2018-01-05T11:36:01.167Z,1.70
2018-01-05T11:38:28.116Z,1.70
2018-01-05T11:40:55.039Z,1.73
2018-01-05T11:43:21.994Z,1.60
2018-01-05T11:45:48.919Z,1.20
2018-01-05T11:48:15.139Z,1.90
2018-01-05T11:50:41.390Z,2.33
2018-01-05T11:53:07.575Z,1.73
2018-01-05T11:55:33.784Z,1.40
2018-01-05T11:57:59.980Z,1.03
2018-01-05T12:00:26.935Z,1.50
2018-01-05T12:02:53.860Z,1.10
2018-01-05T12:05:20.068Z,1.80
2018-01-05T12:07:46.286Z,1.57
2018-01-05T12:10:12.711Z,1.40
2018-01-05T12:12:38.895Z,1.53
2018-01-05T12:15:05.844Z,1.47
2018-01-05T12:17:32.796Z,1.37
2018-01-05T12:20:00.092Z,3.70
2018-01-05T12:22:26.283Z,1.70
2018-01-05T12:24:52.496Z,1.77
2018-01-05T12:27:19.423Z,1.47
2018-01-05T12:29:45.836Z,1.37
2018-01-05T12:32:12.023Z,1.33
2018-01-05T12:34:38.204Z,1.50
2018-01-05T12:37:04.420Z,1.23
2018-01-05T12:39:30.624Z,1.30
2018-01-05T12:41:56.866Z,1.13
2018-01-05T12:44:23.054Z,1.27
2018-01-05T12:46:49.248Z,2.10
2018-01-05T12:49:15.468Z,1.30
2018-01-05T12:51:41.655Z,1.20
2018-01-05T12:54:07.907Z,1.30
2018-01-05T12:56:34.357Z,1.90
2018-01-05T12:59:00.542Z,1.47
2018-01-05T13:01:27.463Z,1.70
2018-01-05T13:03:53.672Z,1.10
2018-01-05T13:06:19.850Z,1.60
2018-01-05T13:08:46.063Z,1.80
2018-01-05T13:11:12.984Z,1.20
2018-01-05T13:13:39.193Z,1.80
2018-01-05T13:16:05.375Z,1.60
2018-01-05T13:18:31.611Z,1.73
2018-01-05T13:20:57.793Z,1.50
2018-01-05T13:23:24.080Z,1.90
2018-01-05T13:25:50.261Z,1.80
2018-01-05T13:28:16.444Z,2.33
2018-01-05T13:30:42.896Z,1.40
2018-01-05T13:33:09.083Z,2.33
2018-01-05T13:35:35.291Z,1.60
2018-01-05T13:38:09.096Z,1.33
2018-01-05T13:40:36.213Z,1.80
2018-01-05T13:43:02.391Z,1.80
2018-01-05T13:45:29.351Z,1.23
2018-01-05T13:47:55.576Z,1.43
2018-01-05T13:50:21.760Z,1.50
2018-01-05T13:52:48.274Z,1.30
2018-01-05T13:55:14.459Z,1.53
2018-01-05T13:57:41.384Z,2.10
2018-01-05T14:00:07.607Z,1.30
2018-01-05T14:02:33.787Z,1.27
2018-01-05T14:04:59.968Z,1.30
2018-01-05T14:07:26.172Z,1.60
2018-01-05T14:09:52.351Z,1.40
2018-01-05T14:12:18.675Z,1.53
2018-01-05T14:14:44.895Z,1.67
2018-01-05T14:17:11.843Z,1.67
2018-01-05T14:19:38.788Z,2.00
2018-01-05T14:22:05.732Z,2.20
2018-01-05T14:24:33.144Z,2.40
2018-01-05T14:26:59.558Z,1.80
2018-01-05T14:29:25.747Z,1.80
2018-01-05T14:31:52.696Z,1.63
2018-01-05T14:34:19.615Z,2.50
2018-01-05T14:36:45.837Z,1.50
2018-01-05T14:39:12.020Z,1.87
2018-01-05T14:41:38.204Z,2.57
2018-01-05T14:44:04.412Z,3.00
2018-01-05T14:46:30.607Z,3.10
2018-01-05T14:48:56.848Z,2.10
2018-01-05T14:51:23.029Z,2.97
2018-01-05T14:53:49.375Z,3.20
2018-01-05T14:56:16.312Z,2.30
2018-01-05T14:58:43.246Z,2.60
2018-01-05T15:01:09.491Z,2.40
2018-01-05T15:03:36.411Z,2.43
2018-01-05T15:06:02.619Z,2.43
2018-01-05T15:08:28.799Z,2.57
2018-01-05T15:10:55.743Z,2.27
2018-01-05T15:13:22.663Z,2.70
2018-01-05T15:15:48.892Z,2.60
2018-01-05T15:18:15.872Z,2.33
2018-01-05T15:20:42.819Z,2.40
2018-01-05T15:23:09.743Z,2.67
2018-01-05T15:25:35.975Z,2.60
2018-01-05T15:28:02.902Z,2.73
2018-01-05T15:30:30.119Z,2.90
2018-01-05T15:32:56.319Z,2.83
2018-01-05T15:35:23.243Z,2.63
2018-01-05T15:37:49.490Z,2.63
2018-01-05T15:40:16.453Z,2.93
2018-01-05T15:42:42.668Z,2.67
2018-01-05T15:45:09.595Z,2.30
2018-01-05T15:47:35.776Z,2.33
2018-01-05T15:50:01.981Z,2.50
2018-01-05T15:52:28.164Z,2.37
2018-01-05T15:54:54.584Z,2.13
2018-01-05T15:57:20.767Z,2.57
2018-01-05T15:59:47.687Z,2.63
2018-01-05T16:02:13.985Z,2.70
2018-01-05T16:04:40.167Z,2.40
2018-01-05T16:07:07.561Z,2.50
2018-01-05T16:09:33.740Z,2.73
2018-01-05T16:12:00.668Z,3.03
2018-01-05T16:14:26.877Z,3.40
2018-01-05T16:16:53.063Z,2.40
2018-01-05T16:19:19.287Z,3.03
2018-01-05T16:21:46.212Z,3.37
2018-01-05T16:24:12.417Z,2.97
2018-01-05T16:26:38.596Z,2.47
2018-01-05T16:29:04.874Z,2.70
2018-01-05T16:31:31.056Z,2.67
2018-01-05T16:33:57.281Z,2.73
2018-01-05T16:36:23.534Z,2.40
2018-01-05T16:38:49.749Z,2.70
2018-01-05T16:41:15.994Z,4.60
2018-01-05T16:43:42.214Z,2.63
2018-01-05T16:46:08.427Z,2.77
2018-01-05T16:48:34.604Z,2.20
2018-01-05T16:51:00.897Z,2.50
2018-01-05T16:53:27.079Z,1.90
2018-01-05T16:55:53.259Z,2.97
2018-01-05T16:58:19.507Z,2.90
2018-01-05T17:00:46.473Z,2.97
2018-01-05T17:03:12.695Z,3.33
2018-01-05T17:05:38.880Z,3.07
2018-01-05T17:08:05.079Z,3.10
2018-01-05T17:10:32.109Z,3.03
2018-01-05T17:12:58.358Z,3.13
2018-01-05T17:15:25.284Z,2.50
2018-01-05T17:17:51.488Z,2.73
2018-01-05T17:20:17.733Z,2.73
2018-01-05T17:22:43.944Z,2.60
2018-01-05T17:25:16.997Z,3.00
2018-01-05T17:27:43.204Z,2.57
2018-01-05T17:30:10.140Z,3.10
2018-01-05T17:32:36.348Z,2.17
2018-01-05T17:35:02.671Z,2.63
2018-01-05T17:37:28.922Z,2.53
2018-01-05T17:39:55.156Z,2.57
2018-01-05T17:42:21.401Z,2.27
2018-01-05T17:44:48.374Z,2.60
2018-01-05T17:47:14.597Z,2.53
2018-01-05T17:49:40.850Z,2.50
2018-01-05T17:52:07.032Z,3.10
2018-01-05T17:54:33.983Z,3.03
2018-01-05T17:57:00.911Z,2.60
2018-01-05T17:59:27.230Z,2.97
2018-01-05T18:01:53.562Z,3.13
2018-01-05T18:04:19.812Z,2.63
2018-01-05T18:06:46.037Z,2.23
2018-01-05T18:09:12.260Z,2.70
2018-01-05T18:11:38.505Z,2.23
2018-01-05T18:14:05.474Z,2.20
2018-01-05T18:16:31.726Z,2.97
2018-01-05T18:18:57.970Z,2.73
2018-01-05T18:21:24.184Z,2.70
2018-01-05T18:23:50.419Z,3.00
2018-01-05T18:26:16.747Z,2.67
2018-01-05T18:28:42.927Z,3.03
2018-01-05T18:31:10.028Z,2.60
2018-01-05T18:33:36.263Z,2.77
2018-01-05T18:36:02.481Z,3.27
2018-01-05T18:38:28.744Z,3.60
2018-01-05T18:40:54.970Z,3.13
2018-01-05T18:43:21.224Z,3.20
2018-01-05T18:45:48.156Z,2.90
2018-01-05T18:48:14.411Z,2.83
2018-01-05T18:50:40.685Z,3.30
2018-01-05T18:53:06.895Z,2.10
2018-01-05T18:55:33.087Z,2.00
2018-01-05T18:58:00.078Z,3.37
2018-01-05T19:00:26.297Z,2.30
2018-01-05T19:02:52.575Z,3.27
2018-01-05T19:05:18.810Z,3.00
2018-01-05T19:07:45.034Z,3.67
2018-01-05T19:10:11.295Z,3.10
2018-01-05T19:12:38.261Z,3.20
2018-01-05T19:15:04.460Z,4.10
2018-01-05T19:17:31.531Z,3.57
2018-01-05T19:19:57.843Z,3.67
2018-01-05T19:22:24.810Z,2.70
2018-01-05T19:24:51.067Z,3.83
2018-01-05T19:27:17.285Z,2.90
2018-01-05T19:29:43.530Z,2.73
2018-01-05T19:32:09.971Z,3.53
2018-01-05T19:34:36.246Z,2.70
2018-01-05T19:37:03.243Z,3.10
2018-01-05T19:39:29.507Z,3.00
2018-01-05T19:41:55.741Z,3.07
2018-01-05T19:44:22.720Z,2.20
2018-01-05T19:46:49.122Z,2.10
2018-01-05T19:49:16.098Z,2.47
2018-01-05T19:51:42.371Z,2.07
2018-01-05T19:54:08.610Z,2.53
2018-01-05T19:56:34.979Z,2.10
2018-01-05T19:59:02.015Z,2.30
2018-01-05T20:01:28.312Z,2.30
2018-01-05T20:03:54.543Z,2.77
2018-01-05T20:06:20.789Z,2.70
2018-01-05T20:08:47.023Z,3.20
2018-01-05T20:11:13.262Z,2.70
2018-01-05T20:13:40.256Z,2.47
2018-01-05T20:16:06.504Z,2.23
2018-01-05T20:18:32.763Z,2.67
2018-01-05T20:20:59.734Z,2.23
2018-01-05T20:23:25.982Z,2.83
2018-01-05T20:25:52.219Z,2.40
2018-01-05T20:28:18.473Z,2.53
2018-01-05T20:30:44.714Z,2.20
2018-01-05T20:33:10.971Z,1.80
2018-01-05T20:35:37.942Z,1.90
2018-01-05T20:38:04.172Z,2.00
2018-01-05T20:40:30.423Z,2.10
2018-01-05T20:42:56.658Z,2.00
2018-01-05T20:45:22.910Z,2.17
2018-01-05T20:47:49.255Z,1.57
2018-01-05T20:50:16.233Z,2.77
2018-01-05T20:52:42.467Z,2.10
2018-01-05T20:55:09.471Z,2.03
2018-01-05T20:57:35.698Z,1.73
2018-01-05T21:00:01.958Z,2.47
2018-01-05T21:02:28.241Z,2.30
2018-01-05T21:04:54.535Z,2.03
2018-01-05T21:07:20.786Z,2.97
2018-01-05T21:09:47.022Z,2.53
2018-01-05T21:12:13.271Z,3.03
2018-01-05T21:14:39.511Z,2.53
2018-01-05T21:17:06.525Z,2.87
2018-01-05T21:19:32.761Z,3.87
2018-01-05T21:21:59.023Z,3.00
2018-01-05T21:24:25.999Z,2.20
2018-01-05T21:26:52.259Z,2.20
2018-01-05T21:29:18.574Z,2.30
2018-01-05T21:31:44.796Z,1.80
2018-01-05T21:34:11.064Z,1.73
2018-01-05T21:36:37.303Z,2.13
2018-01-05T21:39:03.627Z,2.03
2018-01-05T21:41:29.858Z,2.33
2018-01-05T21:43:56.111Z,2.73
2018-01-05T21:46:23.087Z,4.17
2018-01-05T21:48:49.334Z,3.07
2018-01-05T21:51:15.691Z,3.07
2018-01-05T21:53:41.891Z,2.43
2018-01-05T21:56:08.132Z,3.53
2018-01-05T21:58:34.387Z,2.23
2018-01-05T22:01:00.622Z,2.60
2018-01-05T22:03:27.011Z,2.83
2018-01-05T22:05:53.192Z,2.60
2018-01-05T22:08:19.454Z,2.33
2018-01-05T22:10:45.732Z,2.07
2018-01-05T22:13:11.971Z,2.77
2018-01-05T22:15:38.250Z,2.23
2018-01-05T22:18:05.227Z,2.40
2018-01-05T22:20:31.490Z,2.83
2018-01-05T22:22:58.463Z,3.80
2018-01-05T22:25:24.718Z,3.40
2018-01-05T22:27:50.933Z,3.50
2018-01-05T22:30:17.191Z,3.70
2018-01-05T22:32:43.409Z,3.50
2018-01-05T22:35:09.637Z,3.60
2018-01-05T22:37:35.895Z,3.07
2018-01-05T22:40:02.906Z,2.23
2018-01-05T22:42:29.159Z,2.13
2018-01-05T22:44:55.381Z,2.37
2018-01-05T22:47:21.639Z,1.83
2018-01-05T22:49:47.875Z,2.60
2018-01-05T22:52:14.118Z,2.13
2018-01-05T22:54:41.086Z,2.03
2018-01-05T22:57:07.646Z,2.00
2018-01-05T22:59:33.896Z,2.50
2018-01-05T23:02:01.353Z,2.50
2018-01-05T23:04:27.586Z,2.33
2018-01-05T23:06:53.818Z,2.23
2018-01-05T23:09:20.029Z,2.50
2018-01-05T23:11:46.342Z,2.60
2018-01-05T23:14:12.539Z,2.23
2018-01-05T23:16:39.521Z,3.50
2018-01-05T23:19:05.779Z,3.37
2018-01-05T23:21:32.023Z,2.50
2018-01-05T23:23:58.276Z,2.30
2018-01-05T23:26:24.519Z,2.90
2018-01-05T23:28:50.751Z,2.80
2018-01-05T23:31:16.969Z,2.50
2018-01-05T23:33:43.275Z,2.63
2018-01-05T23:36:09.510Z,2.17
2018-01-05T23:38:36.482Z,2.60
2018-01-05T23:41:02.734Z,2.83
2018-01-05T23:43:28.963Z,2.60
2018-01-05T23:45:55.292Z,2.30
2018-01-05T23:48:21.521Z,2.80
2018-01-05T23:50:47.761Z,2.80
2018-01-05T23:53:13.991Z,2.27
2018-01-05T23:55:40.598Z,3.23
2018-01-05T23:58:06.826Z,2.73
